createdAt,value
2022-10-30T05:03:35.833Z,13.24
2022-10-30T05:07:43.710Z,13.05
2022-10-30T05:11:46.332Z,13.02
2022-10-30T05:15:49.508Z,13.03
2022-10-30T05:19:54.391Z,12.99
2022-10-30T05:23:56.999Z,12.87
2022-10-30T05:28:01.792Z,12.76
2022-10-30T05:32:06.198Z,12.71
2022-10-30T05:36:29.797Z,12.81
2022-10-30T05:40:33.429Z,12.83
2022-10-30T05:44:59.207Z,12.67
2022-10-30T05:49:00.537Z,12.44
2022-10-30T05:53:06.661Z,12.50
2022-10-30T05:57:09.296Z,12.38
2022-10-30T06:01:14.472Z,12.41
2022-10-30T06:05:20.878Z,12.35
2022-10-30T06:09:24.846Z,12.40
2022-10-30T06:13:53.784Z,12.45
2022-10-30T06:18:03.429Z,12.31
2022-10-30T06:22:16.627Z,12.24
2022-10-30T06:26:26.834Z,12.22
2022-10-30T06:30:33.241Z,12.13
2022-10-30T06:34:36.314Z,12.14
2022-10-30T06:38:39.025Z,12.18
2022-10-30T06:42:47.285Z,12.24
2022-10-30T06:47:07.808Z,12.13
2022-10-30T06:51:10.506Z,12.35
2022-10-30T06:55:15.455Z,12.39
2022-10-30T06:59:39.331Z,12.51
2022-10-30T07:04:02.511Z,12.53
2022-10-30T07:08:05.839Z,12.59
2022-10-30T07:12:09.482Z,12.63
2022-10-30T07:16:31.985Z,12.85
2022-10-30T07:20:35.872Z,12.85
2022-10-30T07:24:38.562Z,13.02
2022-10-30T07:28:50.070Z,13.26
2022-10-30T07:33:02.619Z,13.37
2022-10-30T07:37:24.230Z,13.64
2022-10-30T07:41:49.785Z,13.81
2022-10-30T07:46:11.072Z,14.00
2022-10-30T07:50:34.055Z,14.06
2022-10-30T07:54:38.020Z,14.20
2022-10-30T07:58:56.753Z,14.47
2022-10-30T08:03:21.930Z,14.64
2022-10-30T08:07:33.007Z,14.85
2022-10-30T08:11:35.726Z,15.07
2022-10-30T08:15:39.944Z,15.25
2022-10-30T08:19:44.675Z,15.48
2022-10-30T08:23:48.826Z,15.59
2022-10-30T08:27:58.313Z,16.02
2022-10-30T08:32:03.044Z,16.23
2022-10-30T08:36:26.050Z,16.45
2022-10-30T08:40:30.393Z,16.72
2022-10-30T08:44:39.047Z,16.80
2022-10-30T08:49:11.345Z,16.85
2022-10-30T08:53:20.440Z,17.02
2022-10-30T08:57:25.997Z,17.25
2022-10-30T09:01:30.442Z,17.38
2022-10-30T09:05:48.736Z,17.50
2022-10-30T09:10:10.662Z,17.70
2022-10-30T09:14:15.244Z,17.88
2022-10-30T09:18:18.153Z,18.03
2022-10-30T09:22:21.335Z,18.18
2022-10-30T09:26:25.104Z,18.31
2022-10-30T09:30:34.924Z,18.61
2022-10-30T09:34:39.522Z,18.75
2022-10-30T09:38:48.638Z,18.83
2022-10-30T09:42:52.957Z,19.07
2022-10-30T09:47:22.377Z,19.37
2022-10-30T09:51:53.575Z,19.62
2022-10-30T09:56:05.905Z,19.82
2022-10-30T10:00:12.534Z,19.97
2022-10-30T10:04:27.152Z,20.18
2022-10-30T10:08:53.110Z,20.40
2022-10-30T10:13:27.306Z,20.65
2022-10-30T10:17:35.863Z,20.93
2022-10-30T10:21:45.845Z,21.19
2022-10-30T10:25:54.280Z,21.36
2022-10-30T10:30:04.461Z,21.59
2022-10-30T10:34:25.649Z,21.80
2022-10-30T10:38:40.533Z,21.95
2022-10-30T10:42:56.322Z,22.19
2022-10-30T10:47:09.378Z,22.32
2022-10-30T10:51:16.109Z,22.26
2022-10-30T10:55:23.514Z,22.29
2022-10-30T10:59:35.495Z,22.50
2022-10-30T11:03:47.014Z,22.57
2022-10-30T11:07:51.942Z,22.81
2022-10-30T11:11:56.454Z,22.92
2022-10-30T11:16:10.456Z,22.95
2022-10-30T11:20:19.515Z,23.07
2022-10-30T11:24:31.009Z,23.14
2022-10-30T11:28:47.308Z,23.42
2022-10-30T11:32:50.638Z,23.55
2022-10-30T11:36:54.942Z,23.65
2022-10-30T11:40:57.609Z,23.74
2022-10-30T11:45:01.973Z,23.91
2022-10-30T11:49:04.736Z,23.77
2022-10-30T11:53:14.118Z,23.81
2022-10-30T11:57:23.105Z,23.96
2022-10-30T12:01:30.123Z,24.09
2022-10-30T12:05:39.563Z,24.15
2022-10-30T12:09:46.278Z,24.28
2022-10-30T12:13:49.040Z,24.33
2022-10-30T12:17:54.328Z,24.49
2022-10-30T12:21:57.980Z,24.53
2022-10-30T12:26:02.634Z,24.54
2022-10-30T12:30:10.289Z,24.59
2022-10-30T12:34:28.083Z,24.70
2022-10-30T12:38:37.371Z,24.81
2022-10-30T12:42:46.373Z,24.85
2022-10-30T12:46:55.745Z,24.93
2022-10-30T12:51:19.725Z,24.98
2022-10-30T12:55:29.898Z,25.02
2022-10-30T12:59:40.825Z,25.26
2022-10-30T13:03:51.576Z,25.30
2022-10-30T13:08:05.607Z,25.24
2022-10-30T13:12:11.557Z,25.30
2022-10-30T13:16:17.602Z,25.34
2022-10-30T13:20:21.727Z,25.13
2022-10-30T13:24:39.669Z,25.07
2022-10-30T13:28:48.845Z,25.15
2022-10-30T13:33:04.409Z,25.12
2022-10-30T13:37:14.001Z,24.99
2022-10-30T13:41:26.705Z,25.07
2022-10-30T13:46:03.294Z,24.86
2022-10-30T13:50:21.004Z,24.74
2022-10-30T13:54:28.324Z,24.51
2022-10-30T13:58:47.151Z,24.23
2022-10-30T14:03:07.026Z,24.06
2022-10-30T14:07:25.048Z,23.78
2022-10-30T14:11:27.734Z,23.59
2022-10-30T14:15:35.408Z,23.47
2022-10-30T14:20:14.387Z,23.25
2022-10-30T14:24:21.003Z,23.25
2022-10-30T14:28:23.837Z,23.14
2022-10-30T14:32:39.074Z,23.16
2022-10-30T14:36:51.085Z,23.09
2022-10-30T14:41:14.909Z,23.02
2022-10-30T14:45:25.241Z,22.98
2022-10-30T14:49:50.901Z,23.10
2022-10-30T14:54:03.431Z,23.09
2022-10-30T14:58:19.363Z,22.75
2022-10-30T15:02:33.768Z,22.46
2022-10-30T15:06:49.937Z,22.36
2022-10-30T15:11:04.774Z,22.18
2022-10-30T15:15:13.826Z,22.09
2022-10-30T15:19:16.745Z,21.95
2022-10-30T15:23:25.472Z,21.73
2022-10-30T15:27:29.652Z,21.34
2022-10-30T15:31:33.415Z,21.11
2022-10-30T15:35:36.067Z,21.03
2022-10-30T15:39:40.392Z,20.86
2022-10-30T15:43:44.190Z,20.53
2022-10-30T15:47:49.964Z,20.58
2022-10-30T15:51:53.159Z,20.19
2022-10-30T15:55:59.125Z,19.94
2022-10-30T16:00:06.426Z,19.81
2022-10-30T16:04:18.338Z,19.82
2022-10-30T16:08:23.954Z,19.67
2022-10-30T16:12:29.551Z,19.43
2022-10-30T16:16:33.578Z,19.45
2022-10-30T16:20:37.996Z,19.33
2022-10-30T16:24:41.471Z,19.14
2022-10-30T16:28:48.476Z,19.06
2022-10-30T16:32:54.586Z,18.97
2022-10-30T16:36:57.642Z,18.93
2022-10-30T16:41:02.840Z,18.94
2022-10-30T16:45:47.914Z,18.84
2022-10-30T16:49:54.613Z,18.62
2022-10-30T16:53:57.407Z,18.45
2022-10-30T16:58:03.562Z,18.44
2022-10-30T17:02:18.451Z,18.55
2022-10-30T17:06:31.738Z,18.65
2022-10-30T17:10:36.805Z,18.59
2022-10-30T17:14:45.698Z,18.43
2022-10-30T17:18:52.168Z,18.34
2022-10-30T17:23:07.352Z,18.14
2022-10-30T17:27:30.419Z,17.99
2022-10-30T17:31:43.889Z,17.85
2022-10-30T17:35:47.778Z,17.99
2022-10-30T17:39:50.240Z,18.06
2022-10-30T17:43:54.272Z,17.99
2022-10-30T17:47:57.459Z,17.77
2022-10-30T17:52:02.302Z,17.87
2022-10-30T17:56:12.117Z,17.73
2022-10-30T18:00:15.582Z,17.54
2022-10-30T18:04:21.446Z,17.53
2022-10-30T18:08:25.812Z,17.23
2022-10-30T18:12:28.461Z,17.29
2022-10-30T18:16:31.795Z,17.26
2022-10-30T18:20:34.409Z,17.08
2022-10-30T18:24:38.361Z,17.04
2022-10-30T18:28:41.166Z,16.88
2022-10-30T18:32:44.423Z,16.77
2022-10-30T18:36:47.054Z,16.79
2022-10-30T18:40:51.721Z,16.70
2022-10-30T18:44:54.334Z,16.61
2022-10-30T18:48:57.042Z,16.80
2022-10-30T18:53:00.939Z,16.72
2022-10-30T18:57:05.398Z,16.77
2022-10-30T19:01:12.622Z,16.59
2022-10-30T19:05:31.183Z,16.61
2022-10-30T19:09:34.011Z,16.45
2022-10-30T19:13:38.107Z,16.40
2022-10-30T19:17:40.726Z,16.33
2022-10-30T19:21:43.353Z,16.43
2022-10-30T19:25:47.591Z,16.56
2022-10-30T19:29:51.547Z,16.48
2022-10-30T19:33:57.402Z,16.40
2022-10-30T19:38:00.583Z,16.42
2022-10-30T19:42:03.514Z,16.46
2022-10-30T19:46:07.564Z,16.30
2022-10-30T19:50:23.310Z,16.14
2022-10-30T19:54:26.023Z,15.96
2022-10-30T19:58:28.658Z,15.80
2022-10-30T20:02:32.717Z,15.73
2022-10-30T20:06:36.595Z,15.69
2022-10-30T20:10:41.992Z,15.59
2022-10-30T20:14:44.625Z,15.54
2022-10-30T20:18:49.410Z,15.35
2022-10-30T20:22:52.588Z,15.11
2022-10-30T20:26:57.165Z,15.17
2022-10-30T20:31:00.172Z,15.12
2022-10-30T20:35:08.769Z,15.15
2022-10-30T20:39:13.986Z,15.13
2022-10-30T20:43:18.665Z,14.98
2022-10-30T20:47:21.290Z,14.76
2022-10-30T20:51:25.284Z,14.61
2022-10-30T20:55:28.437Z,14.40
2022-10-30T20:59:31.129Z,14.17
2022-10-30T21:03:33.911Z,14.18
2022-10-30T21:07:37.966Z,14.34
2022-10-30T21:11:40.643Z,14.45
2022-10-30T21:15:44.807Z,14.60
2022-10-30T21:19:47.401Z,14.41
2022-10-30T21:23:54.691Z,14.30
2022-10-30T21:27:57.683Z,13.99
2022-10-30T21:32:00.321Z,13.85
2022-10-30T21:36:12.009Z,13.75
2022-10-30T21:40:17.315Z,13.72
2022-10-30T21:44:20.002Z,13.65
2022-10-30T21:48:23.072Z,13.63
2022-10-30T21:52:25.775Z,13.69
2022-10-30T21:56:30.638Z,13.63
